• Join FlightAware (Why Join?)
  • Login
  • US Flag 
06:29AM EDT


 

Airport Tracker/Info


-or-


 

Live Flight TrackerFlight Track Log ✈ CTA104 ✈ 01-May-2013 ✈ KGUP - KABQ

Flight Track Log - Related Links

Times and Time Zones

All times are in EDT time to prevent confusion due to time zone crossing. See the CTA104 flight status page for this flight to view local times or setup timezone preferences in your user account.

Time Position Orientation Groundspeed Altitude Reporting Facility
EDT Latitude Longitude Course Direction KTS MPH feet Rate Location/Type
08:39PM 35.4394 -108.6683 104° East 151 174 11,800  Level Albuquerque Center
08:40PM 35.4297 -108.6203 104° East 150 173 12,100 720 Climbing Albuquerque Center
08:41PM 35.4153 -108.5592 106° East 160 184 13,300 900 Climbing Albuquerque Center
08:42PM 35.4061 -108.5103 103° East 158 182 14,000 660 Climbing Albuquerque Center
08:43PM 35.3944 -108.4575 105° East 161 185 14,700 600 Climbing Albuquerque Center
08:44PM 35.3817 -108.3917 103° East 170 196 15,300 240 Climbing Albuquerque Center
08:45PM 35.3711 -108.3297 102° East 181 208 15,300  Level Albuquerque Center
08:46PM 35.3575 -108.2550 103° East 193 222 15,300  Level Albuquerque Center
08:47PM 35.3433 -108.1908 105° East 199 229 15,300  Level Albuquerque Center
08:48PM 35.3250 -108.1164 107° East 204 235 15,300  Level Albuquerque Center
08:49PM 35.3081 -108.0558 109° East 199 229 15,300  Level Albuquerque Center
08:50PM 35.2936 -107.9950 106° East 195 224 15,300  Level Albuquerque Center
08:51PM 35.2719 -107.9203 110° East 205 236 15,300  Level Albuquerque Center
08:52PM 35.2556 -107.8553 107° East 208 239 15,300 -120 Level Albuquerque Center
08:53PM 35.2439 -107.7775 100° East 208 239 15,100 -120 Descending Albuquerque Center
08:54PM 35.2333 -107.7092 101° East 212 244 15,100  Level Albuquerque Center
08:55PM 35.2214 -107.6408 102° East 213 245 15,100 -180 Level Albuquerque Center
08:56PM 35.2067 -107.5631 103° East 212 244 14,800 -480 Descending Albuquerque Center
08:57PM 35.1931 -107.4903 103° East 221 254 14,200 -660 Descending Albuquerque Center
08:58PM 35.1794 -107.4128 102° East 230 265 13,500 -720 Descending Albuquerque Center
08:59PM 35.1642 -107.3389 104° East 228 262 12,800 -720 Descending Albuquerque Center
09:00PM 35.1539 -107.2956 106° East 219 252 12,500 -720 Descending Albuquerque Center
09:00PM 35.1481 -107.2678 104° East 219 252 12,100 -780 Descending Albuquerque Center
09:01PM 35.1314 -107.1944 106° East 223 257 11,300 -720 Descending Albuquerque Center
09:02PM 35.1225 -107.1481 103° East 227 261 11,100 -300 Descending Albuquerque Center
09:02PM 35.1203 -107.1186 95° East 224 258 11,000 -120 Descending Albuquerque Center
09:03PM 35.1181 -107.0842 94° East 203 234 11,000 -420 Level Albuquerque Center
09:03PM 35.1175 -107.0497 91° East 207 238 10,600 -600 Descending Albuquerque Center
09:05PM 35.1142 -106.9631 93° East 210 242 10,000 -300 Descending Albuquerque Center
09:06PM 35.1172 -106.8931 87° East 209 241 10,000  Level Albuquerque Center
09:07PM 35.1228 -106.8261 84° East 198 228 10,100  Climbing Albuquerque Center
09:08PM 35.1278 -106.7572 85° East 207 238 10,000 -300 Descending Albuquerque Center
09:09PM 35.1289 -106.6894 89° East 208 239 9,600 -780 Descending Albuquerque Center
09:10PM 35.1169 -106.6192 102° East 201 231 8,400 -1,020 Descending Albuquerque Center
09:11PM 35.0867 -106.5794 133° Southeast 181 208 7,500 -1,200 Descending Albuquerque Center
09:12PM 35.0542 -106.5919 197° South 119 137 6,100 -1,140 Descending Albuquerque Center
09:13PM 35.0333 -106.6167 224° Southwest 133 153 5,200 -840 Descending Albuquerque Center